createdAt,value
2023-02-07T00:00:47.302Z,101348.25
2023-02-07T00:01:49.616Z,101355.22
2023-02-07T00:02:52.247Z,101360.44
2023-02-07T00:03:56.391Z,101364.75
2023-02-07T00:04:58.714Z,101359.53
2023-02-07T00:06:07.796Z,101355.25
2023-02-07T00:07:10.169Z,101359.47
2023-02-07T00:08:12.444Z,101362.16
2023-02-07T00:09:14.820Z,101362.28
2023-02-07T00:10:17.000Z,101360.44
2023-02-07T00:11:20.844Z,101365.59
2023-02-07T00:12:23.034Z,101359.72
2023-02-07T00:13:25.352Z,101369.09
2023-02-07T00:14:27.571Z,101366.41
2023-02-07T00:15:30.070Z,101367.09
2023-02-07T00:16:32.372Z,101362.78
2023-02-07T00:17:34.785Z,101364.59
2023-02-07T00:18:37.028Z,101368.94
2023-02-07T00:19:39.347Z,101362.84
2023-02-07T00:20:41.533Z,101356.66
2023-02-07T00:21:43.749Z,101359.34
2023-02-07T00:22:46.050Z,101361.03
2023-02-07T00:23:48.462Z,101359.22
2023-02-07T00:24:50.908Z,101367.81
2023-02-07T00:25:53.222Z,101360.00
2023-02-07T00:26:55.437Z,101355.75
2023-02-07T00:27:57.839Z,101351.19
2023-02-07T00:29:00.171Z,101360.56
2023-02-07T00:30:02.813Z,101345.91
2023-02-07T00:31:07.844Z,101357.25
2023-02-07T00:32:10.121Z,101351.94
2023-02-07T00:33:12.368Z,101351.06
2023-02-07T00:34:15.269Z,101346.75
2023-02-07T00:35:18.853Z,101340.94
2023-02-07T00:36:23.886Z,101340.88
2023-02-07T00:37:26.474Z,101343.75
2023-02-07T00:38:30.319Z,101332.34
2023-02-07T00:39:32.797Z,101334.97
2023-02-07T00:40:35.015Z,101335.59
2023-02-07T00:41:38.270Z,101333.00
2023-02-07T00:42:40.491Z,101333.78
2023-02-07T00:43:45.114Z,101331.16
2023-02-07T00:44:47.424Z,101343.94
2023-02-07T00:45:49.869Z,101344.09
2023-02-07T00:46:52.128Z,101338.00
2023-02-07T00:47:54.337Z,101333.66
2023-02-07T00:48:56.666Z,101337.94
2023-02-07T00:49:58.898Z,101335.41
2023-02-07T00:51:01.568Z,101335.09
2023-02-07T00:52:04.063Z,101333.31
2023-02-07T00:53:06.250Z,101341.09
2023-02-07T00:54:08.615Z,101333.25
2023-02-07T00:55:11.119Z,101342.72
2023-02-07T00:56:13.989Z,101340.00
2023-02-07T00:57:16.217Z,101333.06
2023-02-07T00:58:19.255Z,101345.00
2023-02-07T00:59:21.482Z,101343.13
2023-02-07T01:00:23.658Z,101350.69
2023-02-07T01:01:27.485Z,101357.75
2023-02-07T01:02:31.713Z,101352.44
2023-02-07T01:03:34.021Z,101347.25
2023-02-07T01:04:36.306Z,101352.44
2023-02-07T01:05:38.785Z,101347.34
2023-02-07T01:06:41.124Z,101349.00
2023-02-07T01:07:43.315Z,101344.88
2023-02-07T01:08:45.702Z,101335.34
2023-02-07T01:09:48.011Z,101341.38
2023-02-07T01:10:50.405Z,101342.94
2023-02-07T01:11:52.625Z,101343.91
2023-02-07T01:12:54.876Z,101352.41
2023-02-07T01:14:01.324Z,101349.00
2023-02-07T01:15:03.868Z,101352.34
2023-02-07T01:16:06.338Z,101354.16
2023-02-07T01:17:08.674Z,101344.56
2023-02-07T01:18:10.946Z,101355.69
2023-02-07T01:19:13.704Z,101356.34
2023-02-07T01:20:16.247Z,101358.09
2023-02-07T01:21:24.873Z,101361.38
2023-02-07T01:22:27.780Z,101355.25
2023-02-07T01:23:30.181Z,101355.19
2023-02-07T01:24:32.421Z,101352.56
2023-02-07T01:25:34.809Z,101350.81
2023-02-07T01:26:39.975Z,101357.84
2023-02-07T01:27:42.593Z,101345.69
2023-02-07T01:28:44.883Z,101345.59
2023-02-07T01:29:47.505Z,101346.25
2023-02-07T01:30:49.762Z,101349.72
2023-02-07T01:31:53.628Z,101355.78
2023-02-07T01:32:55.952Z,101348.81
2023-02-07T01:33:59.951Z,101348.88
2023-02-07T01:35:02.155Z,101354.03
2023-02-07T01:36:13.573Z,101353.13
2023-02-07T01:37:15.868Z,101361.63
2023-02-07T01:38:18.092Z,101352.25
2023-02-07T01:39:20.332Z,101357.31
2023-02-07T01:40:22.566Z,101355.47
2023-02-07T01:41:26.776Z,101350.16
2023-02-07T01:42:29.620Z,101351.97
2023-02-07T01:43:32.598Z,101351.00
2023-02-07T01:44:37.538Z,101344.88
2023-02-07T01:45:40.980Z,101350.88
2023-02-07T01:46:43.406Z,101344.78
2023-02-07T01:47:45.884Z,101344.69
2023-02-07T01:48:48.543Z,101339.53
2023-02-07T01:49:55.909Z,101340.38
2023-02-07T01:51:03.785Z,101340.31
2023-02-07T01:52:11.145Z,101348.88
2023-02-07T01:53:16.198Z,101353.97
2023-02-07T01:54:20.195Z,101342.03
2023-02-07T01:55:30.230Z,101354.97
2023-02-07T01:56:35.051Z,101354.81
2023-02-07T01:57:37.740Z,101360.13
2023-02-07T01:58:41.262Z,101353.91
2023-02-07T01:59:44.201Z,101360.66
2023-02-07T02:02:17.735Z,101371.66
2023-02-07T02:03:21.923Z,101373.41
2023-02-07T02:04:24.385Z,101373.47
2023-02-07T02:05:28.964Z,101378.63
2023-02-07T02:06:33.286Z,101380.94
2023-02-07T02:07:37.340Z,101382.72
2023-02-07T02:08:40.054Z,101375.97
2023-02-07T02:09:43.998Z,101367.28
2023-02-07T02:10:57.875Z,101376.63
2023-02-07T02:12:18.196Z,101373.97
2023-02-07T02:13:36.192Z,101376.34
2023-02-07T02:14:53.238Z,101377.25
2023-02-07T02:16:06.347Z,101386.69
2023-02-07T02:17:30.482Z,101387.63
2023-02-07T02:18:46.986Z,101378.97
2023-02-07T02:20:08.213Z,101377.88
2023-02-07T02:21:45.547Z,101389.84
2023-02-07T02:23:11.301Z,101378.59
2023-02-07T02:24:38.446Z,101376.97
2023-02-07T02:25:49.184Z,101374.47
2023-02-07T02:27:06.128Z,101376.22
2023-02-07T02:28:38.421Z,101370.94
2023-02-07T02:29:40.574Z,101364.84
2023-02-07T02:31:07.055Z,101366.16
2023-02-07T02:32:30.617Z,101366.59
2023-02-07T02:33:51.292Z,101356.25
2023-02-07T02:35:11.524Z,101361.38
2023-02-07T02:36:24.919Z,101368.81
2023-02-07T02:37:43.148Z,101361.97
2023-02-07T02:38:49.023Z,101369.63
2023-02-07T02:39:58.493Z,101371.34
2023-02-07T02:41:13.935Z,101372.84
2023-02-07T02:42:39.589Z,101371.22
2023-02-07T02:43:57.546Z,101372.84
2023-02-07T02:45:13.016Z,101373.41
2023-02-07T02:46:22.662Z,101368.28
2023-02-07T02:47:27.731Z,101370.09
2023-02-07T02:48:32.852Z,101373.22
2023-02-07T02:49:36.168Z,101364.88
2023-02-07T02:50:39.612Z,101372.38
2023-02-07T02:51:42.311Z,101378.13
2023-02-07T02:52:50.741Z,101380.56
2023-02-07T02:53:59.698Z,101378.22
2023-02-07T02:55:10.645Z,101382.47
2023-02-07T02:56:55.125Z,101381.56
2023-02-07T02:58:13.547Z,101384.84
2023-02-07T02:59:40.401Z,101384.69
2023-02-07T03:00:48.805Z,101386.34
2023-02-07T03:02:32.684Z,101389.75
2023-02-07T03:03:59.922Z,101390.88
2023-02-07T03:05:23.514Z,101394.28
2023-02-07T03:06:44.916Z,101390.75
2023-02-07T03:08:21.712Z,101396.78
2023-02-07T03:09:42.944Z,101395.00
2023-02-07T03:10:59.985Z,101397.56
2023-02-07T03:12:39.052Z,101395.25
2023-02-07T03:13:52.957Z,101401.03
2023-02-07T03:15:05.893Z,101398.53
2023-02-07T03:16:19.826Z,101395.34
2023-02-07T03:17:37.559Z,101403.06
2023-02-07T03:19:28.043Z,101407.31
2023-02-07T03:20:36.542Z,101401.16
2023-02-07T03:21:49.739Z,101400.41
2023-02-07T03:22:57.015Z,101403.69
2023-02-07T03:24:03.174Z,101405.28
2023-02-07T03:25:07.498Z,101397.47
2023-02-07T03:26:10.702Z,101405.97
2023-02-07T03:27:17.036Z,101408.56
2023-02-07T03:28:21.939Z,101406.25
2023-02-07T03:29:26.220Z,101407.84
2023-02-07T03:30:33.021Z,101406.13
2023-02-07T03:31:38.176Z,101403.31
2023-02-07T03:32:44.041Z,101398.25
2023-02-07T03:33:49.379Z,101400.84
2023-02-07T03:35:00.239Z,101399.00
2023-02-07T03:36:23.636Z,101393.63
2023-02-07T03:37:31.387Z,101389.41
2023-02-07T03:38:35.396Z,101390.59
2023-02-07T03:39:37.812Z,101392.06
2023-02-07T03:40:44.463Z,101392.88
2023-02-07T03:41:52.754Z,101395.31
2023-02-07T03:43:02.168Z,101402.34
2023-02-07T03:44:07.199Z,101392.75
2023-02-07T03:45:14.155Z,101395.31
2023-02-07T03:46:17.663Z,101391.06
2023-02-07T03:47:20.163Z,101389.47
2023-02-07T03:48:22.623Z,101384.19
2023-02-07T03:49:24.819Z,101390.22
2023-02-07T03:50:27.079Z,101386.84
2023-02-07T03:51:29.477Z,101400.53
2023-02-07T03:52:32.034Z,101396.88
2023-02-07T03:53:34.429Z,101398.91
2023-02-07T03:54:36.870Z,101399.63
2023-02-07T03:55:39.338Z,101399.69
2023-02-07T03:56:42.012Z,101402.09
2023-02-07T03:57:44.308Z,101399.59
2023-02-07T03:58:46.580Z,101408.19
2023-02-07T03:59:48.879Z,101405.59
2023-02-07T04:00:51.425Z,101397.97
2023-02-07T04:01:53.888Z,101399.53
2023-02-07T04:02:56.115Z,101394.13
2023-02-07T04:03:58.420Z,101402.78
2023-02-07T04:05:01.648Z,101396.88
2023-02-07T04:06:04.169Z,101397.75
2023-02-07T04:07:06.525Z,101400.31
2023-02-07T04:08:09.005Z,101392.94
2023-02-07T04:09:11.933Z,101393.75
2023-02-07T04:10:14.752Z,101399.69
2023-02-07T04:11:16.975Z,101393.81
2023-02-07T04:12:19.200Z,101394.56
2023-02-07T04:13:21.421Z,101392.66
2023-02-07T04:14:24.100Z,101384.09
2023-02-07T04:15:26.371Z,101387.44
2023-02-07T04:16:28.626Z,101383.00
2023-02-07T04:17:31.569Z,101386.59
2023-02-07T04:18:34.462Z,101386.41
2023-02-07T04:19:36.728Z,101382.28
2023-02-07T04:20:38.924Z,101388.09
2023-02-07T04:21:41.256Z,101392.44
2023-02-07T04:22:43.499Z,101389.72
2023-02-07T04:23:45.760Z,101380.31
2023-02-07T04:24:48.514Z,101378.44
2023-02-07T04:25:50.732Z,101377.69
2023-02-07T04:26:52.999Z,101375.03
2023-02-07T04:27:55.400Z,101375.78
2023-02-07T04:28:57.792Z,101368.84
2023-02-07T04:30:00.132Z,101381.69
2023-02-07T04:31:02.712Z,101385.06
2023-02-07T04:32:05.344Z,101385.06
2023-02-07T04:33:07.567Z,101385.81
2023-02-07T04:34:09.898Z,101378.09
2023-02-07T04:35:12.130Z,101381.63
2023-02-07T04:36:14.561Z,101385.13
2023-02-07T04:37:16.941Z,101395.34
2023-02-07T04:38:19.171Z,101394.56
2023-02-07T04:39:21.489Z,101385.13
2023-02-07T04:40:23.738Z,101380.72
2023-02-07T04:41:26.262Z,101377.34
2023-02-07T04:42:28.470Z,101384.19
2023-02-07T04:43:35.250Z,101381.34
2023-02-07T04:44:37.518Z,101386.56
2023-02-07T04:45:39.964Z,101384.00
2023-02-07T04:46:42.525Z,101386.50
2023-02-07T04:47:44.887Z,101388.25
2023-02-07T04:48:48.456Z,101389.75
2023-02-07T04:49:50.905Z,101392.19
2023-02-07T04:50:53.784Z,101387.84
2023-02-07T04:51:56.397Z,101386.03
2023-02-07T04:52:58.672Z,101387.69
2023-02-07T04:54:01.025Z,101388.69
2023-02-07T04:55:03.402Z,101389.44
2023-02-07T04:56:06.280Z,101385.91
2023-02-07T04:57:09.459Z,101389.44
2023-02-07T04:58:11.768Z,101396.19
2023-02-07T04:59:13.996Z,101391.53
2023-02-07T05:00:17.836Z,101387.78
2023-02-07T05:01:20.131Z,101391.03
2023-02-07T05:02:22.403Z,101383.91
2023-02-07T05:03:24.713Z,101388.81
2023-02-07T05:04:27.071Z,101387.22
2023-02-07T05:05:29.344Z,101388.75
2023-02-07T05:06:32.070Z,101387.75
2023-02-07T05:07:34.505Z,101384.44
2023-02-07T05:08:37.353Z,101395.47
2023-02-07T05:09:39.630Z,101388.56
2023-02-07T05:10:42.447Z,101396.22
2023-02-07T05:11:44.686Z,101396.81
2023-02-07T05:12:46.945Z,101400.38
2023-02-07T05:13:49.674Z,101392.53
2023-02-07T05:14:51.915Z,101400.31
2023-02-07T05:15:54.181Z,101395.16
2023-02-07T05:16:56.444Z,101396.72
2023-02-07T05:17:58.922Z,101390.63
2023-02-07T05:19:02.060Z,101395.66
2023-02-07T05:20:06.185Z,101383.75
2023-02-07T05:21:08.442Z,101388.88
2023-02-07T05:22:10.696Z,101378.81
2023-02-07T05:23:13.295Z,101387.53
2023-02-07T05:24:15.569Z,101382.69
2023-02-07T05:25:18.229Z,101384.97
2023-02-07T05:26:20.388Z,101388.56
2023-02-07T05:27:22.771Z,101382.69
2023-02-07T05:28:24.971Z,101373.25
2023-02-07T05:29:27.207Z,101379.97
2023-02-07T05:30:29.506Z,101380.78
2023-02-07T05:31:50.293Z,101380.91
2023-02-07T05:33:04.228Z,101382.53
2023-02-07T05:34:06.487Z,101383.47
2023-02-07T05:35:08.808Z,101379.91
2023-02-07T05:36:11.133Z,101383.97
2023-02-07T05:37:13.388Z,101388.06
2023-02-07T05:38:17.504Z,101397.34
2023-02-07T05:39:19.884Z,101394.91
2023-02-07T05:40:23.771Z,101392.06
2023-02-07T05:41:26.549Z,101396.09
2023-02-07T05:42:28.929Z,101386.06
2023-02-07T05:43:31.471Z,101390.22
2023-02-07T05:44:33.829Z,101384.19
2023-02-07T05:45:36.171Z,101385.97
2023-02-07T05:46:38.430Z,101392.94
2023-02-07T05:47:40.903Z,101397.13
2023-02-07T05:48:43.092Z,101388.41
2023-02-07T05:49:45.256Z,101390.16
2023-02-07T05:50:47.778Z,101393.47
2023-02-07T05:51:50.059Z,101392.72
2023-02-07T05:52:52.857Z,101400.50
2023-02-07T05:53:55.236Z,101391.72
2023-02-07T05:54:57.539Z,101398.53
2023-02-07T05:55:59.828Z,101402.66
2023-02-07T05:57:02.094Z,101394.94
2023-02-07T05:58:04.353Z,101401.56
2023-02-07T05:59:06.682Z,101395.47
2023-02-07T06:00:12.995Z,101401.50
2023-02-07T06:01:15.632Z,101396.78
2023-02-07T06:02:17.923Z,101396.44
2023-02-07T06:03:20.201Z,101402.44
2023-02-07T06:04:22.462Z,101398.94
2023-02-07T06:05:24.910Z,101403.91
2023-02-07T06:06:27.657Z,101394.38
2023-02-07T06:07:29.826Z,101401.34
2023-02-07T06:08:31.987Z,101407.16
2023-02-07T06:09:34.593Z,101412.28
2023-02-07T06:10:36.816Z,101397.47
2023-02-07T06:11:39.012Z,101412.88
2023-02-07T06:12:41.498Z,101417.94
2023-02-07T06:13:43.750Z,101420.44
2023-02-07T06:14:46.021Z,101428.94
2023-02-07T06:15:48.550Z,101417.03
2023-02-07T06:16:50.823Z,101419.63
2023-02-07T06:17:53.084Z,101429.09
2023-02-07T06:18:55.597Z,101423.00
2023-02-07T06:19:57.814Z,101417.13
2023-02-07T06:21:00.096Z,101418.00
2023-02-07T06:22:02.346Z,101406.78
2023-02-07T06:23:04.740Z,101403.44
2023-02-07T06:24:08.036Z,101403.63
2023-02-07T06:25:11.772Z,101414.47
2023-02-07T06:26:14.084Z,101407.66
2023-02-07T06:27:16.496Z,101412.66
2023-02-07T06:28:18.733Z,101402.38
2023-02-07T06:29:21.014Z,101408.19
2023-02-07T06:30:23.321Z,101414.38
2023-02-07T06:31:25.697Z,101413.25
2023-02-07T06:32:27.893Z,101408.19
2023-02-07T06:33:30.179Z,101405.69
2023-02-07T06:34:32.390Z,101409.81
2023-02-07T06:35:34.599Z,101408.84
2023-02-07T06:36:36.860Z,101419.84
2023-02-07T06:37:39.134Z,101415.63
2023-02-07T06:38:41.370Z,101416.19
2023-02-07T06:39:43.642Z,101409.31
2023-02-07T06:40:45.888Z,101401.53
2023-02-07T06:41:48.359Z,101405.84
2023-02-07T06:42:50.678Z,101407.59
2023-02-07T06:43:52.881Z,101416.28
2023-02-07T06:44:55.138Z,101415.38
2023-02-07T06:45:57.396Z,101414.28
2023-02-07T06:46:59.901Z,101419.66
2023-02-07T06:48:02.534Z,101421.50
2023-02-07T06:49:04.854Z,101423.81
2023-02-07T06:50:09.145Z,101425.66
2023-02-07T06:51:11.564Z,101421.41
2023-02-07T06:52:13.861Z,101421.41
2023-02-07T06:53:16.096Z,101430.13
2023-02-07T06:54:18.617Z,101427.41
2023-02-07T06:55:20.935Z,101432.53
2023-02-07T06:56:23.180Z,101426.53
2023-02-07T06:57:25.460Z,101435.09
2023-02-07T06:58:27.706Z,101434.31
2023-02-07T06:59:30.799Z,101442.81
2023-02-07T07:00:33.398Z,101446.25
2023-02-07T07:01:35.749Z,101436.97
2023-02-07T07:02:37.989Z,101445.53
2023-02-07T07:03:40.683Z,101443.84
2023-02-07T07:04:42.950Z,101434.44
2023-02-07T07:05:45.206Z,101442.72
2023-02-07T07:06:47.606Z,101449.34
2023-02-07T07:07:51.481Z,101454.63
2023-02-07T07:08:53.695Z,101451.03
2023-02-07T07:09:55.987Z,101464.59
2023-02-07T07:10:58.363Z,101464.66
2023-02-07T07:12:00.643Z,101461.34
2023-02-07T07:13:03.619Z,101463.06
2023-02-07T07:14:06.296Z,101453.63
2023-02-07T07:15:08.847Z,101463.00
2023-02-07T07:16:11.083Z,101459.25
2023-02-07T07:17:15.211Z,101463.06
2023-02-07T07:18:17.407Z,101464.97
2023-02-07T07:19:19.603Z,101459.59
2023-02-07T07:20:22.080Z,101461.22
2023-02-07T07:21:24.399Z,101460.47
2023-02-07T07:22:26.564Z,101458.69
2023-02-07T07:23:28.831Z,101459.75
2023-02-07T07:24:30.988Z,101452.22
2023-02-07T07:25:33.432Z,101456.91
2023-02-07T07:26:48.447Z,101453.41
2023-02-07T07:27:52.787Z,101442.53
2023-02-07T07:28:58.189Z,101452.25
2023-02-07T07:30:00.779Z,101447.41
2023-02-07T07:31:07.966Z,101452.22
2023-02-07T07:32:22.433Z,101448.22
2023-02-07T07:33:34.629Z,101445.59
2023-02-07T07:34:36.889Z,101451.00
2023-02-07T07:35:39.432Z,101444.19
2023-02-07T07:36:42.362Z,101451.75
2023-02-07T07:37:44.577Z,101449.56
2023-02-07T07:38:47.791Z,101447.47
2023-02-07T07:39:50.422Z,101454.19
2023-02-07T07:40:53.016Z,101452.44
2023-02-07T07:41:55.252Z,101455.03
2023-02-07T07:43:12.725Z,101454.03
2023-02-07T07:44:21.376Z,101451.91
2023-02-07T07:45:23.560Z,101459.56
2023-02-07T07:46:25.922Z,101455.00
2023-02-07T07:47:28.907Z,101464.16
2023-02-07T07:48:31.130Z,101467.72
2023-02-07T07:49:33.413Z,101464.53
2023-02-07T07:50:35.614Z,101468.84
2023-02-07T07:51:37.830Z,101463.31
2023-02-07T07:52:40.272Z,101455.94
2023-02-07T07:53:42.460Z,101461.31
2023-02-07T07:54:44.679Z,101454.44
2023-02-07T07:55:55.464Z,101464.66
2023-02-07T07:56:58.022Z,101466.97
2023-02-07T07:58:00.391Z,101470.19
2023-02-07T07:59:06.071Z,101466.94
2023-02-07T08:00:14.684Z,101468.53
2023-02-07T08:01:16.825Z,101464.72
2023-02-07T08:02:19.021Z,101465.78
2023-02-07T08:03:21.663Z,101464.09
2023-02-07T08:04:23.814Z,101464.97
2023-02-07T08:05:25.995Z,101463.53
2023-02-07T08:06:28.231Z,101466.78
2023-02-07T08:07:30.505Z,101465.72
2023-02-07T08:08:33.243Z,101461.97
2023-02-07T08:09:35.493Z,101469.63
2023-02-07T08:10:38.968Z,101471.38
2023-02-07T08:11:41.375Z,101473.75
2023-02-07T08:12:44.316Z,101483.56
2023-02-07T08:13:46.538Z,101479.38
2023-02-07T08:14:48.799Z,101487.72
2023-02-07T08:15:50.981Z,101485.50
2023-02-07T08:16:53.329Z,101478.84
2023-02-07T08:17:55.653Z,101486.19
2023-02-07T08:18:57.906Z,101480.81
2023-02-07T08:20:00.290Z,101506.31
2023-02-07T08:21:02.791Z,101495.06
2023-02-07T08:22:05.366Z,101488.56
2023-02-07T08:23:07.625Z,101497.69
2023-02-07T08:24:09.981Z,101494.28
2023-02-07T08:25:12.767Z,101497.06
2023-02-07T08:26:15.018Z,101496.38
2023-02-07T08:27:17.496Z,101494.19
2023-02-07T08:28:22.075Z,101499.63
2023-02-07T08:29:24.302Z,101505.09
2023-02-07T08:30:27.062Z,101502.75
2023-02-07T08:31:29.366Z,101501.66
2023-02-07T08:32:31.809Z,101494.56
2023-02-07T08:33:34.034Z,101497.22
2023-02-07T08:34:37.580Z,101503.78
2023-02-07T08:35:40.795Z,101501.53
2023-02-07T08:36:43.066Z,101494.56
2023-02-07T08:37:45.250Z,101498.06
2023-02-07T08:38:47.450Z,101495.94
2023-02-07T08:39:52.671Z,101497.94
2023-02-07T08:40:54.995Z,101499.88
2023-02-07T08:41:57.303Z,101485.41
2023-02-07T08:43:00.145Z,101496.19
2023-02-07T08:44:02.780Z,101497.25
2023-02-07T08:45:05.599Z,101493.81
2023-02-07T08:46:08.324Z,101500.72
2023-02-07T08:47:11.304Z,101494.97
2023-02-07T08:48:13.828Z,101482.81
2023-02-07T08:49:16.076Z,101491.47
2023-02-07T08:50:19.002Z,101505.09
2023-02-07T08:51:21.574Z,101501.16
2023-02-07T08:52:23.951Z,101498.19
2023-02-07T08:53:26.219Z,101501.69
2023-02-07T08:54:28.504Z,101502.41
2023-02-07T08:55:30.847Z,101505.47
2023-02-07T08:56:33.075Z,101491.72
2023-02-07T08:57:35.315Z,101492.69
2023-02-07T08:58:37.574Z,101500.50
2023-02-07T08:59:39.821Z,101494.41
2023-02-07T09:00:43.724Z,101505.78
2023-02-07T09:01:45.946Z,101497.16
2023-02-07T09:02:48.211Z,101496.22
2023-02-07T09:03:50.451Z,101494.91
2023-02-07T09:04:52.949Z,101498.88
2023-02-07T09:05:59.266Z,101500.00
2023-02-07T09:07:01.472Z,101498.28
2023-02-07T09:08:03.964Z,101498.53
2023-02-07T09:09:07.133Z,101490.53
2023-02-07T09:10:10.462Z,101481.53
2023-02-07T09:11:12.819Z,101493.69
2023-02-07T09:12:15.123Z,101487.25
2023-02-07T09:13:17.348Z,101493.78
2023-02-07T09:14:19.691Z,101496.97
2023-02-07T09:15:21.984Z,101485.97
2023-02-07T09:16:24.622Z,101496.84
2023-02-07T09:17:27.082Z,101485.97
2023-02-07T09:18:30.130Z,101490.09
2023-02-07T09:19:32.752Z,101491.00
2023-02-07T09:20:35.050Z,101491.78
2023-02-07T09:21:37.506Z,101494.28
2023-02-07T09:22:58.228Z,101496.09
2023-02-07T09:24:00.505Z,101497.25
2023-02-07T09:25:02.751Z,101504.78
2023-02-07T09:26:07.905Z,101505.69
2023-02-07T09:27:10.152Z,101503.81
2023-02-07T09:28:12.460Z,101503.69
2023-02-07T09:29:15.179Z,101503.31
2023-02-07T09:30:17.781Z,101506.97
2023-02-07T09:31:21.594Z,101510.94
2023-02-07T09:32:23.879Z,101509.34
2023-02-07T09:33:26.172Z,101507.66
2023-02-07T09:34:28.518Z,101502.09
2023-02-07T09:35:30.751Z,101503.47
2023-02-07T09:36:33.506Z,101507.06
2023-02-07T09:37:48.972Z,101508.75
2023-02-07T09:38:52.469Z,101515.03
2023-02-07T09:39:54.661Z,101516.63
2023-02-07T09:40:58.117Z,101507.69
2023-02-07T09:42:06.186Z,101518.72
2023-02-07T09:43:26.416Z,101516.53
2023-02-07T09:45:00.882Z,101529.75
2023-02-07T09:46:22.808Z,101517.44
2023-02-07T09:47:26.768Z,101523.56
2023-02-07T09:48:45.051Z,101523.56
2023-02-07T09:50:23.624Z,101519.91
2023-02-07T09:51:27.151Z,101524.41
2023-02-07T09:52:44.584Z,101529.28
2023-02-07T09:54:01.689Z,101523.09
2023-02-07T09:55:05.446Z,101513.41
2023-02-07T09:56:09.549Z,101511.19
2023-02-07T09:57:37.835Z,101501.38
2023-02-07T09:58:45.450Z,101510.81
2023-02-07T10:00:02.506Z,101512.38
2023-02-07T10:01:14.252Z,101507.66
2023-02-07T10:02:25.203Z,101516.44
2023-02-07T10:03:29.498Z,101510.91
2023-02-07T10:04:41.610Z,101515.53
2023-02-07T10:05:51.881Z,101511.94
2023-02-07T10:06:57.168Z,101513.38
2023-02-07T10:07:59.398Z,101514.66
2023-02-07T10:09:01.696Z,101507.34
2023-02-07T10:10:03.942Z,101512.81
2023-02-07T10:11:15.324Z,101523.03
2023-02-07T10:12:42.671Z,101521.34
2023-02-07T10:14:02.047Z,101512.63
2023-02-07T10:15:08.059Z,101518.44
2023-02-07T10:16:39.927Z,101514.72
2023-02-07T10:18:03.070Z,101502.75
2023-02-07T10:19:13.928Z,101514.50
2023-02-07T10:20:18.943Z,101511.50
2023-02-07T10:21:45.524Z,101516.00
2023-02-07T10:23:04.942Z,101523.56
2023-02-07T10:24:31.115Z,101514.56
2023-02-07T10:26:02.738Z,101524.47
2023-02-07T10:27:11.458Z,101522.59
2023-02-07T10:28:13.713Z,101524.03
2023-02-07T10:29:33.136Z,101516.88
2023-02-07T10:30:38.426Z,101514.19
2023-02-07T10:31:46.415Z,101518.97
2023-02-07T10:32:49.872Z,101520.25
2023-02-07T10:34:03.246Z,101519.00
2023-02-07T10:35:19.266Z,101528.09
2023-02-07T10:36:24.203Z,101532.38
2023-02-07T10:37:31.670Z,101520.59
2023-02-07T10:38:43.824Z,101526.88
2023-02-07T10:39:54.197Z,101525.00
2023-02-07T10:41:11.409Z,101530.31
2023-02-07T10:42:17.275Z,101531.47
2023-02-07T10:43:26.560Z,101525.06
2023-02-07T10:44:29.754Z,101526.31
2023-02-07T10:45:32.084Z,101520.28
2023-02-07T10:46:35.989Z,101513.22
2023-02-07T10:47:40.248Z,101526.22
2023-02-07T10:48:42.579Z,101523.78
2023-02-07T10:49:49.570Z,101518.84
2023-02-07T10:50:51.930Z,101516.53
2023-02-07T10:51:58.319Z,101523.47
2023-02-07T10:53:00.632Z,101522.72
2023-02-07T10:54:10.325Z,101523.69
2023-02-07T10:55:13.900Z,101535.38
2023-02-07T10:56:22.559Z,101526.16
2023-02-07T10:57:26.400Z,101531.63
2023-02-07T10:58:38.998Z,101528.75
2023-02-07T10:59:46.263Z,101527.94
2023-02-07T11:00:51.395Z,101531.75
2023-02-07T11:01:54.448Z,101529.06
2023-02-07T11:03:06.219Z,101520.84
2023-02-07T11:04:24.012Z,101525.28
2023-02-07T11:05:30.079Z,101512.75
2023-02-07T11:06:34.328Z,101528.19
2023-02-07T11:07:47.089Z,101530.53
2023-02-07T11:08:49.538Z,101519.66
2023-02-07T11:09:52.477Z,101513.38
2023-02-07T11:10:58.221Z,101508.66
2023-02-07T11:12:00.534Z,101511.22
2023-02-07T11:13:05.064Z,101508.63
2023-02-07T11:14:08.071Z,101501.63
2023-02-07T11:15:19.391Z,101497.31
2023-02-07T11:16:23.772Z,101515.84
2023-02-07T11:17:26.261Z,101508.44
2023-02-07T11:18:31.175Z,101508.94
2023-02-07T11:19:33.510Z,101495.63
2023-02-07T11:20:39.466Z,101497.03
2023-02-07T11:21:43.928Z,101500.63
2023-02-07T11:22:46.222Z,101503.50
2023-02-07T11:23:50.401Z,101503.16
2023-02-07T11:24:59.824Z,101498.22
2023-02-07T11:26:03.080Z,101511.72
2023-02-07T11:27:21.579Z,101508.19
2023-02-07T11:28:28.513Z,101508.25
2023-02-07T11:29:33.809Z,101501.53
2023-02-07T11:30:37.209Z,101505.25
2023-02-07T11:31:39.871Z,101507.56
2023-02-07T11:32:43.437Z,101510.34
2023-02-07T11:33:45.704Z,101505.38
2023-02-07T11:34:49.811Z,101505.00
2023-02-07T11:36:06.018Z,101509.84
2023-02-07T11:37:22.083Z,101505.19
2023-02-07T11:38:28.578Z,101504.28
2023-02-07T11:39:30.844Z,101509.19
2023-02-07T11:40:44.800Z,101496.78
2023-02-07T11:42:11.252Z,101499.88
2023-02-07T11:43:17.492Z,101491.66
2023-02-07T11:44:19.736Z,101497.28
2023-02-07T11:45:22.823Z,101484.06
2023-02-07T11:46:41.433Z,101493.69
2023-02-07T11:47:48.701Z,101488.09
2023-02-07T11:48:56.054Z,101486.16
2023-02-07T11:50:01.610Z,101497.00
2023-02-07T11:51:06.663Z,101502.84
2023-02-07T11:52:09.952Z,101494.16
2023-02-07T11:53:26.479Z,101500.50
2023-02-07T11:54:30.930Z,101496.91
2023-02-07T11:55:41.775Z,101493.66
2023-02-07T11:56:49.711Z,101488.66
2023-02-07T11:57:57.508Z,101498.44
2023-02-07T11:59:03.576Z,101499.53
2023-02-07T12:00:08.259Z,101494.09
2023-02-07T12:01:24.738Z,101507.13
2023-02-07T12:02:29.652Z,101498.22
2023-02-07T12:03:40.224Z,101498.78
2023-02-07T12:04:42.912Z,101500.81
2023-02-07T12:05:48.076Z,101498.66
2023-02-07T12:06:57.564Z,101494.88
2023-02-07T12:08:31.003Z,101492.47
2023-02-07T12:09:40.260Z,101487.44
2023-02-07T12:10:48.158Z,101506.16
2023-02-07T12:11:54.785Z,101496.88
2023-02-07T12:13:15.249Z,101486.59
2023-02-07T12:14:34.186Z,101496.03
2023-02-07T12:15:44.056Z,101492.72
2023-02-07T12:16:54.001Z,101478.53
2023-02-07T12:18:21.053Z,101480.72
2023-02-07T12:19:29.150Z,101473.38
2023-02-07T12:20:35.751Z,101471.16
2023-02-07T12:21:54.405Z,101479.25
2023-02-07T12:23:27.927Z,101472.00
2023-02-07T12:24:45.201Z,101473.38
2023-02-07T12:25:55.721Z,101463.72
2023-02-07T12:27:15.850Z,101471.41
2023-02-07T12:28:34.978Z,101474.78
2023-02-07T12:29:52.367Z,101459.31
2023-02-07T12:31:01.676Z,101471.38
2023-02-07T12:32:27.065Z,101469.16
2023-02-07T12:34:01.356Z,101460.47
2023-02-07T12:35:20.091Z,101473.28